sensor_id;sensor_type;location;lat;lon;timestamp;pressure;altitude;pressure_sealevel;temperature;humidity
37174;BME280;23068;51.430;5.540;2023-04-15T00:00:10;100652.50;;;8.01;100.00
37174;BME280;23068;51.430;5.540;2023-04-15T00:06:10;100650.19;;;7.96;100.00
37174;BME280;23068;51.430;5.540;2023-04-15T00:12:11;100649.13;;;7.88;100.00
37174;BME280;23068;51.430;5.540;2023-04-15T00:18:11;100647.78;;;7.82;100.00
37174;BME280;23068;51.430;5.540;2023-04-15T00:24:12;100642.31;;;7.84;100.00
37174;BME280;23068;51.430;5.540;2023-04-15T00:30:12;100649.72;;;7.80;100.00
37174;BME280;23068;51.430;5.540;2023-04-15T00:36:12;100644.97;;;7.61;100.00
37174;BME280;23068;51.430;5.540;2023-04-15T00:42:12;100648.56;;;7.49;100.00
37174;BME280;23068;51.430;5.540;2023-04-15T00:48:13;100648.44;;;7.39;100.00
37174;BME280;23068;51.430;5.540;2023-04-15T00:54:13;100649.88;;;7.32;100.00
37174;BME280;23068;51.430;5.540;2023-04-15T01:00:14;100647.94;;;7.23;100.00
37174;BME280;23068;51.430;5.540;2023-04-15T01:06:14;100649.97;;;7.20;100.00
37174;BME280;23068;51.430;5.540;2023-04-15T01:12:16;100648.72;;;7.12;100.00
37174;BME280;23068;51.430;5.540;2023-04-15T01:18:17;100653.06;;;7.02;100.00
37174;BME280;23068;51.430;5.540;2023-04-15T01:24:18;100658.44;;;6.90;100.00
37174;BME280;23068;51.430;5.540;2023-04-15T01:30:18;100645.81;;;6.80;100.00
37174;BME280;23068;51.430;5.540;2023-04-15T01:36:18;100654.63;;;6.81;100.00
37174;BME280;23068;51.430;5.540;2023-04-15T01:42:20;100656.56;;;6.79;100.00
37174;BME280;23068;51.430;5.540;2023-04-15T01:48:21;100653.13;;;6.66;100.00
37174;BME280;23068;51.430;5.540;2023-04-15T01:54:21;100654.31;;;6.62;100.00
37174;BME280;23068;51.430;5.540;2023-04-15T02:00:22;100656.56;;;6.55;100.00
37174;BME280;23068;51.430;5.540;2023-04-15T02:06:22;100653.72;;;6.45;100.00
37174;BME280;23068;51.430;5.540;2023-04-15T02:12:22;100655.88;;;6.40;100.00
37174;BME280;23068;51.430;5.540;2023-04-15T02:18:23;100657.16;;;6.35;100.00
37174;BME280;23068;51.430;5.540;2023-04-15T02:24:23;100665.06;;;6.23;100.00
37174;BME280;23068;51.430;5.540;2023-04-15T02:30:23;100678.66;;;6.19;100.00
37174;BME280;23068;51.430;5.540;2023-04-15T02:36:23;100687.16;;;6.11;100.00
37174;BME280;23068;51.430;5.540;2023-04-15T02:42:24;100698.75;;;5.97;100.00
37174;BME280;23068;51.430;5.540;2023-04-15T02:48:24;100696.34;;;5.94;100.00
37174;BME280;23068;51.430;5.540;2023-04-15T02:54:25;100705.75;;;5.86;100.00
37174;BME280;23068;51.430;5.540;2023-04-15T03:00:25;100700.13;;;5.77;100.00
37174;BME280;23068;51.430;5.540;2023-04-15T03:06:26;100704.78;;;5.74;100.00
37174;BME280;23068;51.430;5.540;2023-04-15T03:12:26;100698.22;;;5.67;100.00
37174;BME280;23068;51.430;5.540;2023-04-15T03:18:26;100707.44;;;5.61;100.00
37174;BME280;23068;51.430;5.540;2023-04-15T03:24:26;100705.13;;;5.57;100.00
37174;BME280;23068;51.430;5.540;2023-04-15T03:30:27;100717.94;;;5.50;100.00
37174;BME280;23068;51.430;5.540;2023-04-15T03:36:28;100721.53;;;5.49;100.00
37174;BME280;23068;51.430;5.540;2023-04-15T03:42:28;100722.81;;;5.43;100.00
37174;BME280;23068;51.430;5.540;2023-04-15T03:48:29;100735.53;;;5.38;100.00
37174;BME280;23068;51.430;5.540;2023-04-15T03:54:29;100728.72;;;5.34;100.00
37174;BME280;23068;51.430;5.540;2023-04-15T04:00:29;100743.91;;;5.32;100.00
37174;BME280;23068;51.430;5.540;2023-04-15T04:06:29;100745.69;;;5.32;100.00
37174;BME280;23068;51.430;5.540;2023-04-15T04:12:29;100756.19;;;5.33;100.00
37174;BME280;23068;51.430;5.540;2023-04-15T04:18:33;100773.06;;;5.32;100.00
37174;BME280;23068;51.430;5.540;2023-04-15T04:24:33;100771.66;;;5.27;100.00
37174;BME280;23068;51.430;5.540;2023-04-15T04:30:34;100781.53;;;5.25;100.00
37174;BME280;23068;51.430;5.540;2023-04-15T04:36:35;100790.09;;;5.15;100.00
37174;BME280;23068;51.430;5.540;2023-04-15T04:42:35;100799.66;;;5.18;100.00
37174;BME280;23068;51.430;5.540;2023-04-15T04:48:35;100811.00;;;5.20;100.00
37174;BME280;23068;51.430;5.540;2023-04-15T04:54:35;100820.75;;;5.19;100.00
37174;BME280;23068;51.430;5.540;2023-04-15T05:00:36;100821.44;;;5.23;100.00
37174;BME280;23068;51.430;5.540;2023-04-15T05:06:36;100835.34;;;5.27;100.00
37174;BME280;23068;51.430;5.540;2023-04-15T05:12:36;100838.94;;;5.26;100.00
37174;BME280;23068;51.430;5.540;2023-04-15T05:18:37;100852.19;;;5.26;100.00
37174;BME280;23068;51.430;5.540;2023-04-15T05:24:37;100857.59;;;5.24;100.00
37174;BME280;23068;51.430;5.540;2023-04-15T05:30:37;100871.97;;;5.34;100.00
37174;BME280;23068;51.430;5.540;2023-04-15T05:36:38;100882.97;;;5.28;100.00
37174;BME280;23068;51.430;5.540;2023-04-15T05:42:38;100890.41;;;5.23;100.00
37174;BME280;23068;51.430;5.540;2023-04-15T05:48:38;100901.63;;;5.27;100.00
37174;BME280;23068;51.430;5.540;2023-04-15T05:54:38;100908.94;;;5.37;100.00
37174;BME280;23068;51.430;5.540;2023-04-15T06:00:39;100907.75;;;5.41;100.00
37174;BME280;23068;51.430;5.540;2023-04-15T06:06:39;100916.25;;;5.61;100.00
37174;BME280;23068;51.430;5.540;2023-04-15T06:12:39;100921.22;;;5.80;100.00
37174;BME280;23068;51.430;5.540;2023-04-15T06:18:39;100930.91;;;6.08;100.00
37174;BME280;23068;51.430;5.540;2023-04-15T06:24:40;100936.47;;;6.30;100.00
37174;BME280;23068;51.430;5.540;2023-04-15T06:30:40;100948.09;;;6.54;100.00
37174;BME280;23068;51.430;5.540;2023-04-15T06:36:40;100961.28;;;6.81;100.00
37174;BME280;23068;51.430;5.540;2023-04-15T06:42:40;100968.09;;;7.24;100.00
37174;BME280;23068;51.430;5.540;2023-04-15T06:48:41;100979.44;;;7.51;100.00
37174;BME280;23068;51.430;5.540;2023-04-15T06:54:41;100990.44;;;7.70;100.00
37174;BME280;23068;51.430;5.540;2023-04-15T07:00:42;100992.03;;;7.97;100.00
37174;BME280;23068;51.430;5.540;2023-04-15T07:06:42;100997.94;;;8.13;100.00
37174;BME280;23068;51.430;5.540;2023-04-15T07:12:42;101004.34;;;8.11;100.00
37174;BME280;23068;51.430;5.540;2023-04-15T07:18:42;101018.44;;;8.37;100.00
37174;BME280;23068;51.430;5.540;2023-04-15T07:24:43;101017.72;;;8.70;100.00
37174;BME280;23068;51.430;5.540;2023-04-15T07:30:43;101026.91;;;9.23;100.00
37174;BME280;23068;51.430;5.540;2023-04-15T07:36:43;101037.34;;;9.38;100.00
37174;BME280;23068;51.430;5.540;2023-04-15T07:42:44;101048.31;;;9.68;100.00
37174;BME280;23068;51.430;5.540;2023-04-15T07:48:44;101052.00;;;9.99;100.00
37174;BME280;23068;51.430;5.540;2023-04-15T07:54:44;101046.31;;;10.04;100.00
37174;BME280;23068;51.430;5.540;2023-04-15T08:00:44;101055.25;;;10.14;100.00
37174;BME280;23068;51.430;5.540;2023-04-15T08:06:45;101060.44;;;10.70;100.00
37174;BME280;23068;51.430;5.540;2023-04-15T08:12:45;101076.81;;;10.56;100.00
37174;BME280;23068;51.430;5.540;2023-04-15T08:18:50;101085.56;;;10.58;100.00
37174;BME280;23068;51.430;5.540;2023-04-15T08:24:51;101100.19;;;10.86;100.00
37174;BME280;23068;51.430;5.540;2023-04-15T08:30:54;101092.59;;;11.33;100.00
37174;BME280;23068;51.430;5.540;2023-04-15T08:36:55;101094.84;;;11.58;100.00
37174;BME280;23068;51.430;5.540;2023-04-15T08:42:56;101110.91;;;11.79;100.00
37174;BME280;23068;51.430;5.540;2023-04-15T08:48:58;101119.34;;;11.74;100.00
37174;BME280;23068;51.430;5.540;2023-04-15T08:54:59;101125.03;;;11.81;100.00
37174;BME280;23068;51.430;5.540;2023-04-15T09:01:01;101137.91;;;11.87;100.00
37174;BME280;23068;51.430;5.540;2023-04-15T09:07:01;101148.31;;;11.60;100.00
37174;BME280;23068;51.430;5.540;2023-04-15T09:13:02;101180.28;;;11.51;100.00
37174;BME280;23068;51.430;5.540;2023-04-15T09:19:19;101173.22;;;11.50;100.00
37174;BME280;23068;51.430;5.540;2023-04-15T09:31:28;101201.16;;;12.20;100.00
37174;BME280;23068;51.430;5.540;2023-04-15T09:37:35;101201.03;;;11.91;100.00
37174;BME280;23068;51.430;5.540;2023-04-15T09:43:39;101207.03;;;12.04;100.00
37174;BME280;23068;51.430;5.540;2023-04-15T09:49:54;101212.06;;;12.69;100.00
37174;BME280;23068;51.430;5.540;2023-04-15T09:55:56;101211.38;;;12.86;100.00
37174;BME280;23068;51.430;5.540;2023-04-15T10:01:57;101217.63;;;13.06;100.00
37174;BME280;23068;51.430;5.540;2023-04-15T10:07:57;101210.59;;;13.34;100.00
37174;BME280;23068;51.430;5.540;2023-04-15T10:13:57;101219.22;;;12.58;100.00
37174;BME280;23068;51.430;5.540;2023-04-15T10:20:00;101223.25;;;12.93;100.00
37174;BME280;23068;51.430;5.540;2023-04-15T10:26:01;101230.19;;;13.05;100.00
37174;BME280;23068;51.430;5.540;2023-04-15T10:32:03;101233.03;;;12.94;100.00
37174;BME280;23068;51.430;5.540;2023-04-15T10:38:43;101231.19;;;13.14;100.00
37174;BME280;23068;51.430;5.540;2023-04-15T10:44:48;101236.13;;;12.99;100.00
37174;BME280;23068;51.430;5.540;2023-04-15T10:50:56;101244.13;;;13.30;100.00
37174;BME280;23068;51.430;5.540;2023-04-15T11:03:09;101245.47;;;13.92;100.00
37174;BME280;23068;51.430;5.540;2023-04-15T11:09:33;101244.97;;;14.25;100.00
37174;BME280;23068;51.430;5.540;2023-04-15T11:21:35;101262.47;;;13.92;100.00
37174;BME280;23068;51.430;5.540;2023-04-15T11:27:35;101253.00;;;14.35;100.00
37174;BME280;23068;51.430;5.540;2023-04-15T11:33:37;101264.56;;;14.45;100.00
37174;BME280;23068;51.430;5.540;2023-04-15T11:39:37;101274.03;;;14.12;100.00
37174;BME280;23068;51.430;5.540;2023-04-15T11:51:53;101288.91;;;14.07;100.00
37174;BME280;23068;51.430;5.540;2023-04-15T12:04:11;101292.19;;;14.57;100.00
37174;BME280;23068;51.430;5.540;2023-04-15T12:10:12;101288.22;;;14.89;100.00
37174;BME280;23068;51.430;5.540;2023-04-15T12:16:15;101296.53;;;14.68;100.00
37174;BME280;23068;51.430;5.540;2023-04-15T12:22:16;101304.22;;;15.18;100.00
37174;BME280;23068;51.430;5.540;2023-04-15T12:28:16;101309.47;;;14.92;100.00
37174;BME280;23068;51.430;5.540;2023-04-15T12:34:18;101329.06;;;14.37;100.00
37174;BME280;23068;51.430;5.540;2023-04-15T12:40:24;101339.66;;;14.95;100.00
37174;BME280;23068;51.430;5.540;2023-04-15T12:46:25;101348.38;;;15.07;100.00
37174;BME280;23068;51.430;5.540;2023-04-15T12:52:25;101351.06;;;15.07;100.00
37174;BME280;23068;51.430;5.540;2023-04-15T12:58:26;101347.34;;;15.35;100.00
37174;BME280;23068;51.430;5.540;2023-04-15T13:04:26;101365.31;;;14.52;100.00
37174;BME280;23068;51.430;5.540;2023-04-15T13:10:26;101367.50;;;15.14;100.00
37174;BME280;23068;51.430;5.540;2023-04-15T13:16:27;101367.28;;;14.70;100.00
37174;BME280;23068;51.430;5.540;2023-04-15T13:22:27;101380.75;;;14.70;100.00
37174;BME280;23068;51.430;5.540;2023-04-15T13:28:27;101385.00;;;15.27;100.00
37174;BME280;23068;51.430;5.540;2023-04-15T13:34:27;101370.78;;;15.62;100.00
37174;BME280;23068;51.430;5.540;2023-04-15T13:40:28;101391.75;;;15.14;100.00
